Time;durP1;ratioP1;P1;durP2;ratioP2;P2;SDS_P1;SDS_P2;PMS_P1;PMS_P2;Temp;Humidity;BMP_temperature;BMP_pressure;BME280_temperature;BME280_humidity;BME280_pressure;Samples;Min_cycle;Max_cycle;Signal;HPM_P1;HPM_P2
2023/05/11 00:02:17;;;;;;;;;;;;;;;30.69;76.10;101039.41;5123965;27;69428;-41
2023/05/11 00:04:47;;;;;;;;;;;;;;;30.68;74.65;101045.88;5121136;27;66347;-40
2023/05/11 00:07:17;;;;;;;;;;;;;;;30.70;74.17;101049.22;5124720;27;70329;-40
2023/05/11 00:09:47;;;;;;;;;;;;;;;30.70;73.77;101046.50;5129657;27;66769;-41
2023/05/11 00:12:17;;;;;;;;;;;;;;;30.73;73.59;101054.19;5126058;27;70382;-40
2023/05/11 00:14:47;;;;;;;;;;;;;;;30.74;73.28;101055.00;5132751;27;65928;-41
2023/05/11 00:17:19;;;;;;;;;;;;;;;30.80;73.02;101058.78;5124998;27;69385;-42
2023/05/11 00:19:49;;;;;;;;;;;;;;;30.82;72.56;101067.53;5105429;27;65275;-41
2023/05/11 00:22:19;;;;;;;;;;;;;;;30.84;72.51;101070.81;5124631;27;71000;-44
2023/05/11 00:24:49;;;;;;;;;;;;;;;30.86;73.17;101074.16;5122773;27;66931;-42
2023/05/11 00:27:19;;;;;;;;;;;;;;;30.88;72.97;101072.06;5121643;27;70384;-41
2023/05/11 00:29:50;;;;;;;;;;;;;;;30.90;72.51;101081.63;5121978;27;66710;-41
2023/05/11 00:32:20;;;;;;;;;;;;;;;30.95;72.28;101078.25;5111359;27;69251;-41
2023/05/11 00:34:51;;;;;;;;;;;;;;;30.95;72.58;101072.84;5138652;27;66801;-40
2023/05/11 00:37:21;;;;;;;;;;;;;;;30.98;72.31;101071.59;5142040;27;69889;-40
2023/05/11 00:39:53;;;;;;;;;;;;;;;31.00;71.96;101073.03;5139575;27;66549;-41
2023/05/11 00:42:24;;;;;;;;;;;;;;;31.02;71.93;101081.78;5129109;27;69754;-41
2023/05/11 00:44:56;;;;;;;;;;;;;;;31.04;71.47;101081.56;5118491;27;65604;-41
2023/05/11 00:47:27;;;;;;;;;;;;;;;31.05;71.27;101081.34;5134694;27;70021;-41
2023/05/11 00:49:57;;;;;;;;;;;;;;;31.04;71.37;101082.41;5119436;27;66122;-40
2023/05/11 00:52:27;;;;;;;;;;;;;;;31.07;70.70;101081.16;5139474;27;70223;-41
2023/05/11 00:54:58;;;;;;;;;;;;;;;31.08;71.24;101089.03;5140606;27;65629;-41
2023/05/11 00:57:30;;;;;;;;;;;;;;;31.09;70.54;101090.72;5119226;27;69125;-40
2023/05/11 01:00:04;;;;;;;;;;;;;;;31.11;70.92;101087.78;5118201;27;66721;-40
2023/05/11 01:02:35;;;;;;;;;;;;;;;31.12;70.64;101084.88;5134184;27;69388;-40
2023/05/11 01:05:06;;;;;;;;;;;;;;;31.14;70.31;101088.16;5139816;27;66678;-40
2023/05/11 01:07:51;;;;;;;;;;;;;;;31.15;70.03;101083.59;5140274;27;70777;-40
2023/05/11 01:10:32;;;;;;;;;;;;;;;31.16;70.11;101087.97;5139692;27;66765;-39
2023/05/11 01:13:09;;;;;;;;;;;;;;;31.18;69.31;101099.41;5122433;27;71591;-42
2023/05/11 01:15:50;;;;;;;;;;;;;;;31.19;69.49;101106.50;5129923;27;66863;-40
2023/05/11 01:18:45;;;;;;;;;;;;;;;31.20;69.14;101101.91;5135393;27;70678;-41
2023/05/11 01:21:16;;;;;;;;;;;;;;;31.22;69.05;101108.75;5130321;27;66584;-40
2023/05/11 01:24:05;;;;;;;;;;;;;;;31.23;69.11;101112.31;5121477;27;70388;-41
2023/05/11 01:26:42;;;;;;;;;;;;;;;31.24;68.55;101113.97;5124458;27;65687;-41
2023/05/11 01:29:18;;;;;;;;;;;;;;;31.27;68.59;101113.53;5102765;27;69970;-41
2023/05/11 01:31:49;;;;;;;;;;;;;;;31.28;68.67;101116.00;5110518;27;65902;-42
2023/05/11 01:34:22;;;;;;;;;;;;;;;31.30;68.38;101118.53;5141252;27;69839;-40
2023/05/11 01:36:53;;;;;;;;;;;;;;;31.30;68.15;101113.94;5139611;27;66682;-40
2023/05/11 01:39:28;;;;;;;;;;;;;;;31.32;67.87;101106.41;5117101;27;69743;-41
2023/05/11 01:42:03;;;;;;;;;;;;;;;31.35;67.76;101105.16;5135638;27;65661;-41
2023/05/11 01:44:35;;;;;;;;;;;;;;;31.36;67.65;101113.09;5139386;27;69982;-42
2023/05/11 01:47:05;;;;;;;;;;;;;;;31.39;67.30;101119.94;5115261;27;66219;-44
2023/05/11 01:49:37;;;;;;;;;;;;;;;31.39;67.33;101111.81;5121267;27;70103;-40
2023/05/11 01:52:08;;;;;;;;;;;;;;;31.40;66.57;101102.66;5137853;27;66466;-42
2023/05/11 01:54:41;;;;;;;;;;;;;;;31.40;66.68;101094.53;5119238;27;71051;-40
2023/05/11 01:57:12;;;;;;;;;;;;;;;31.43;66.30;101085.13;5133725;27;66027;-41
2023/05/11 01:59:43;;;;;;;;;;;;;;;31.43;66.37;101094.09;5124057;27;70105;-41
2023/05/11 02:02:14;;;;;;;;;;;;;;;31.45;66.55;101083.00;5122723;27;67604;-42
2023/05/11 02:04:46;;;;;;;;;;;;;;;31.48;65.97;101087.97;5137443;27;70584;-41
2023/05/11 02:07:17;;;;;;;;;;;;;;;31.50;65.76;101091.31;5078141;27;66188;-42
2023/05/11 02:09:49;;;;;;;;;;;;;;;31.52;65.89;101081.91;5090931;27;70910;-41
2023/05/11 02:12:20;;;;;;;;;;;;;;;31.54;65.74;101087.94;5089951;27;66632;-40
2023/05/11 02:14:51;;;;;;;;;;;;;;;31.56;65.58;101074.97;5083881;27;69901;-41
2023/05/11 02:17:21;;;;;;;;;;;;;;;31.58;65.29;101072.88;5082260;27;68062;-44
2023/05/11 02:19:52;;;;;;;;;;;;;;;31.60;65.39;101084.34;5072502;27;69124;-41
2023/05/11 02:22:24;;;;;;;;;;;;;;;31.62;65.13;101084.13;5099429;27;67076;-43
2023/05/11 02:24:54;;;;;;;;;;;;;;;31.63;65.29;101074.13;5098651;27;70738;-42
2023/05/11 02:27:24;;;;;;;;;;;;;;;31.68;65.50;101060.72;5095271;27;66592;-41
2023/05/11 02:29:57;;;;;;;;;;;;;;;31.70;65.36;101050.47;5088663;27;70702;-42
2023/05/11 02:32:28;;;;;;;;;;;;;;;31.72;64.82;101051.09;5099957;27;65493;-41
2023/05/11 02:35:12;;;;;;;;;;;;;;;31.73;64.74;101050.88;5102549;27;70317;-41
2023/05/11 02:37:44;;;;;;;;;;;;;;;31.77;64.88;101043.94;5088168;27;66636;-41
2023/05/11 02:40:18;;;;;;;;;;;;;;;31.78;64.78;101044.78;5095146;27;70011;-43
2023/05/11 02:42:54;;;;;;;;;;;;;;;31.80;64.65;101056.25;5096611;27;65511;-43
2023/05/11 02:45:27;;;;;;;;;;;;;;;31.82;64.42;101068.53;5089908;27;69357;-41
2023/05/11 02:47:58;;;;;;;;;;;;;;;31.85;64.48;101067.25;5084207;27;65461;-41
2023/05/11 02:50:32;;;;;;;;;;;;;;;31.87;64.59;101070.56;5082700;27;70287;-44
2023/05/11 02:53:06;;;;;;;;;;;;;;;31.89;64.52;101056.78;5077150;27;66433;-42
2023/05/11 02:55:36;;;;;;;;;;;;;;;31.91;64.44;101044.69;5103222;27;69841;-42
2023/05/11 02:58:08;;;;;;;;;;;;;;;31.94;64.35;101038.81;5095347;27;66131;-41
2023/05/11 03:00:40;;;;;;;;;;;;;;;31.96;64.29;101036.72;5105006;27;70387;-42
2023/05/11 03:03:11;;;;;;;;;;;;;;;31.97;64.11;101041.06;5086350;27;66444;-41
2023/05/11 03:05:41;;;;;;;;;;;;;;;31.84;63.98;101008.59;5112428;27;68668;-45
2023/05/11 03:08:11;;;;;;;;;;;;;;;32.02;63.67;101035.81;5107886;27;64904;-43
2023/05/11 03:10:42;;;;;;;;;;;;;;;32.04;63.80;101033.72;5108330;27;69786;-41
2023/05/11 03:13:15;;;;;;;;;;;;;;;32.05;63.57;101029.94;5098570;27;66469;-45
2023/05/11 03:15:46;;;;;;;;;;;;;;;32.07;63.53;101026.16;5088832;27;70345;-42
2023/05/11 03:18:18;;;;;;;;;;;;;;;32.09;63.41;101021.34;5100720;27;66882;-41
2023/05/11 03:20:49;;;;;;;;;;;;;;;32.09;63.28;101008.59;5116648;27;69735;-45
2023/05/11 03:23:20;;;;;;;;;;;;;;;32.11;63.43;101021.94;5119997;27;66473;-43
2023/05/11 03:25:51;;;;;;;;;;;;;;;32.12;63.21;101018.16;5104490;27;70106;-41
2023/05/11 03:28:22;;;;;;;;;;;;;;;32.12;63.32;101013.56;5120162;27;66535;-41
2023/05/11 03:31:02;;;;;;;;;;;;;;;32.13;63.10;100998.13;5102099;27;69203;-42
2023/05/11 03:33:33;;;;;;;;;;;;;;;31.92;63.11;100959.53;5109273;27;67347;-41
2023/05/11 03:36:08;;;;;;;;;;;;;;;32.15;63.07;100996.00;5122357;27;70037;-42
2023/05/11 03:38:38;;;;;;;;;;;;;;;32.16;62.69;100981.41;5090521;27;67030;-41
2023/05/11 03:41:14;;;;;;;;;;;;;;;32.18;62.76;100981.97;5099173;27;70834;-42
2023/05/11 03:43:51;;;;;;;;;;;;;;;32.21;62.95;100973.41;5124024;27;66339;-41
2023/05/11 03:46:23;;;;;;;;;;;;;;;32.23;62.54;100971.28;5099688;27;70562;-42
2023/05/11 03:48:54;;;;;;;;;;;;;;;32.24;62.63;100965.63;5121835;27;65322;-42
2023/05/11 03:51:28;;;;;;;;;;;;;;;32.27;62.62;100961.63;5087994;27;69262;-42
2023/05/11 03:53:58;;;;;;;;;;;;;;;32.30;62.36;100961.19;5095566;27;64586;-41
2023/05/11 03:56:29;;;;;;;;;;;;;;;32.30;62.23;100950.31;5116163;27;70038;-44
2023/05/11 03:58:59;;;;;;;;;;;;;;;32.32;62.14;100952.78;5092541;27;66568;-40
2023/05/11 04:01:31;;;;;;;;;;;;;;;32.33;62.14;100947.13;5097381;27;70251;-41
2023/05/11 04:04:01;;;;;;;;;;;;;;;32.35;62.21;100936.91;5116968;27;66833;-43
2023/05/11 04:06:31;;;;;;;;;;;;;;;32.37;62.19;100945.63;5120473;27;70133;-42
2023/05/11 04:09:09;;;;;;;;;;;;;;;32.38;62.02;100941.84;5095290;27;65548;-41
2023/05/11 04:11:39;;;;;;;;;;;;;;;32.40;62.08;100945.19;5104592;27;69554;-43
2023/05/11 04:14:09;;;;;;;;;;;;;;;32.42;62.05;100948.47;5114561;27;66733;-42
2023/05/11 04:16:40;;;;;;;;;;;;;;;32.44;61.67;100935.50;5101946;27;70050;-40
2023/05/11 04:19:10;;;;;;;;;;;;;;;32.46;62.12;100933.44;5104954;27;66672;-41
2023/05/11 04:21:41;;;;;;;;;;;;;;;32.47;61.79;100924.22;5118875;27;70597;-41
2023/05/11 04:24:11;;;;;;;;;;;;;;;32.49;61.63;100916.69;5127795;27;67043;-42
2023/05/11 04:26:41;;;;;;;;;;;;;;;32.51;61.43;100912.88;5121237;27;70592;-41
2023/05/11 04:29:11;;;;;;;;;;;;;;;32.32;61.58;100882.22;5129275;27;67070;-43
2023/05/11 04:31:41;;;;;;;;;;;;;;;32.53;61.90;100916.22;5109104;27;69941;-44
2023/05/11 04:34:11;;;;;;;;;;;;;;;32.53;61.64;100916.22;5113434;27;65539;-42
2023/05/11 04:36:42;;;;;;;;;;;;;;;32.52;61.71;100914.56;5104132;27;70757;-41
2023/05/11 04:39:12;;;;;;;;;;;;;;;32.52;61.74;100909.13;5111483;27;65939;-42
2023/05/11 04:41:42;;;;;;;;;;;;;;;32.52;61.96;100899.09;5119437;27;70172;-41
2023/05/11 04:44:13;;;;;;;;;;;;;;;32.52;61.86;100899.09;5128321;27;66235;-44
2023/05/11 04:46:44;;;;;;;;;;;;;;;32.52;61.72;100898.28;5101109;27;70409;-44
2023/05/11 04:49:14;;;;;;;;;;;;;;;32.52;61.89;100895.56;5110603;27;66217;-42
2023/05/11 04:51:44;;;;;;;;;;;;;;;32.54;61.85;100885.28;5122252;27;69879;-43
2023/05/11 04:54:16;;;;;;;;;;;;;;;32.53;62.00;100891.78;5088971;27;65429;-42
2023/05/11 04:56:46;;;;;;;;;;;;;;;32.54;61.90;100885.28;5110726;27;70634;-43
2023/05/11 04:59:17;;;;;;;;;;;;;;;32.54;62.06;100885.28;5105783;27;66065;-42
2023/05/11 05:01:47;;;;;;;;;;;;;;;32.55;62.06;100886.94;5107236;27;70447;-44
2023/05/11 05:04:17;;;;;;;;;;;;;;;32.53;61.85;100872.75;5101523;27;66986;-44
2023/05/11 05:06:47;;;;;;;;;;;;;;;32.58;62.09;100870.19;5130291;27;70787;-43
2023/05/11 05:09:17;;;;;;;;;;;;;;;32.57;61.92;100861.22;5104155;27;65498;-42
2023/05/11 05:11:48;;;;;;;;;;;;;;;32.60;61.80;100851.78;5101472;27;70777;-43
2023/05/11 05:14:19;;;;;;;;;;;;;;;32.61;61.88;100850.72;5080428;27;67061;-43
2023/05/11 05:16:49;;;;;;;;;;;;;;;32.62;61.85;100845.03;5120984;27;70185;-42
2023/05/11 05:19:19;;;;;;;;;;;;;;;32.63;61.57;100840.44;5098649;27;66997;-44
2023/05/11 05:21:50;;;;;;;;;;;;;;;32.66;61.49;100837.25;5110615;27;69796;-45
2023/05/11 05:24:20;;;;;;;;;;;;;;;32.67;61.37;100836.19;5124693;27;65828;-43
2023/05/11 05:26:50;;;;;;;;;;;;;;;32.69;61.50;100823.22;5109822;27;69391;-45
2023/05/11 05:29:22;;;;;;;;;;;;;;;32.69;61.37;100813.16;5107555;27;65402;-41
2023/05/11 05:31:52;;;;;;;;;;;;;;;32.72;61.36;100801.81;5112578;27;70620;-41
2023/05/11 05:34:24;;;;;;;;;;;;;;;32.74;61.33;100798.91;5112901;27;66036;-43
2023/05/11 05:36:54;;;;;;;;;;;;;;;32.76;61.28;100798.63;5130407;27;69022;-42
2023/05/11 05:39:24;;;;;;;;;;;;;;;32.78;61.30;100794.63;5125948;27;65978;-42
2023/05/11 05:41:54;;;;;;;;;;;;;;;32.78;60.97;100789.19;5087587;27;69255;-42
2023/05/11 05:44:25;;;;;;;;;;;;;;;32.82;60.73;100790.41;5113139;27;65356;-42
2023/05/11 05:46:55;;;;;;;;;;;;;;;32.83;61.04;100778.44;5097022;27;69768;-43
2023/05/11 05:49:30;;;;;;;;;;;;;;;32.83;61.02;100770.31;5105064;27;66348;-42
2023/05/11 05:52:00;;;;;;;;;;;;;;;32.86;60.92;100779.88;5105345;27;69909;-42
2023/05/11 05:54:30;;;;;;;;;;;;;;;32.88;61.08;100772.31;5101645;27;66138;-43
2023/05/11 05:57:01;;;;;;;;;;;;;;;32.89;60.99;100769.34;5107518;27;70485;-45
2023/05/11 05:59:31;;;;;;;;;;;;;;;32.89;60.99;100758.47;5107822;27;66985;-41
2023/05/11 06:02:02;;;;;;;;;;;;;;;32.91;61.00;100755.53;5104129;27;69748;-45
2023/05/11 06:04:33;;;;;;;;;;;;;;;32.92;61.22;100746.31;5097688;27;65616;-43
2023/05/11 06:07:03;;;;;;;;;;;;;;;32.92;60.96;100733.56;5120408;27;70220;-41
2023/05/11 06:09:34;;;;;;;;;;;;;;;32.92;60.93;100725.41;5102841;27;66156;-41
2023/05/11 06:12:08;;;;;;;;;;;;;;;32.96;60.71;100730.34;5127207;27;70146;-43
2023/05/11 06:14:43;;;;;;;;;;;;;;;32.98;60.77;100736.38;5104445;27;65744;-41
2023/05/11 06:17:13;;;;;;;;;;;;;;;32.99;60.86;100730.72;5114837;27;70037;-41
2023/05/11 06:19:46;;;;;;;;;;;;;;;33.01;60.74;100728.59;5114860;27;65390;-41
2023/05/11 06:22:20;;;;;;;;;;;;;;;33.04;60.46;100730.88;5118470;27;70102;-43
2023/05/11 06:24:51;;;;;;;;;;;;;;;33.08;60.61;100717.63;5101802;27;66932;-43
2023/05/11 06:27:22;;;;;;;;;;;;;;;33.09;60.44;100697.53;5092845;27;69203;-42
2023/05/11 06:29:55;;;;;;;;;;;;;;;33.12;60.43;100691.59;5091120;27;65409;-42
2023/05/11 06:32:28;;;;;;;;;;;;;;;33.12;60.56;100680.75;5088368;27;70083;-42
2023/05/11 06:35:00;;;;;;;;;;;;;;;33.12;60.48;100680.75;5105363;27;65391;-42
2023/05/11 06:37:30;;;;;;;;;;;;;;;33.15;60.28;100680.25;5097021;27;69160;-44
2023/05/11 06:40:01;;;;;;;;;;;;;;;33.15;60.55;100669.38;5105020;27;66026;-45
2023/05/11 06:42:31;;;;;;;;;;;;;;;33.17;60.36;100666.44;5120259;27;70892;-42
2023/05/11 06:45:08;;;;;;;;;;;;;;;33.19;60.47;100667.03;5087352;27;66983;-41
2023/05/11 06:47:43;;;;;;;;;;;;;;;33.19;60.22;100653.44;5100893;27;70443;-42
2023/05/11 06:50:13;;;;;;;;;;;;;;;33.21;60.14;100657.56;5127023;27;65948;-41
2023/05/11 06:52:46;;;;;;;;;;;;;;;33.21;60.11;100643.97;5116389;27;70557;-43
2023/05/11 06:55:17;;;;;;;;;;;;;;;33.23;60.17;100643.72;5127390;27;66584;-43
2023/05/11 06:57:47;;;;;;;;;;;;;;;33.25;60.00;100644.31;5118212;27;70309;-42
2023/05/11 07:00:17;;;;;;;;;;;;;;;33.26;60.04;100649.50;5127810;27;66644;-42
2023/05/11 07:02:48;;;;;;;;;;;;;;;33.25;59.88;100642.41;5118972;27;68644;-42
2023/05/11 07:05:18;;;;;;;;;;;;;;;33.28;59.81;100624.78;5108321;27;65762;-42
2023/05/11 07:07:48;;;;;;;;;;;;;;;33.29;59.88;100624.56;5126141;27;70304;-42
2023/05/11 07:10:19;;;;;;;;;;;;;;;33.31;59.77;100622.41;5116449;27;65857;-42
2023/05/11 07:12:49;;;;;;;;;;;;;;;33.33;59.67;100612.13;5090012;27;70362;-41
2023/05/11 07:15:20;;;;;;;;;;;;;;;33.36;59.44;100617.06;5119884;27;66673;-41
2023/05/11 07:17:51;;;;;;;;;;;;;;;33.36;59.67;100611.63;5128114;27;70362;-42
2023/05/11 07:20:21;;;;;;;;;;;;;;;33.37;59.43;100599.69;5111112;27;66957;-43
2023/05/11 07:22:55;;;;;;;;;;;;;;;33.38;59.44;100601.34;5129039;27;70042;-41
2023/05/11 07:25:25;;;;;;;;;;;;;;;33.41;59.54;100593.78;5095742;27;66923;-44
2023/05/11 07:27:55;;;;;;;;;;;;;;;33.33;59.70;100574.06;5122480;27;70573;-43
2023/05/11 07:30:26;;;;;;;;;;;;;;;33.44;59.41;100585.13;5106505;27;65025;-42
2023/05/11 07:32:56;;;;;;;;;;;;;;;33.45;59.27;100573.16;5125905;27;69809;-42
2023/05/11 07:35:26;;;;;;;;;;;;;;;33.47;59.07;100574.56;5123644;27;66625;-42
2023/05/11 07:37:56;;;;;;;;;;;;;;;33.48;59.36;100572.69;5117195;27;69660;-42
2023/05/11 07:40:27;;;;;;;;;;;;;;;33.49;59.17;100569.72;5125931;27;66071;-42
2023/05/11 07:42:57;;;;;;;;;;;;;;;33.51;59.27;100569.47;5117313;27;70486;-42
2023/05/11 07:45:28;;;;;;;;;;;;;;;33.51;59.17;100562.13;5128360;27;65811;-43
2023/05/11 07:47:58;;;;;;;;;;;;;;;33.53;59.04;100572.81;5124126;27;68781;-42
2023/05/11 07:50:28;;;;;;;;;;;;;;;33.12;58.95;100495.94;5123217;27;66935;-41
2023/05/11 07:52:59;;;;;;;;;;;;;;;33.54;59.11;100558.13;5115147;27;69438;-42
2023/05/11 07:55:29;;;;;;;;;;;;;;;33.55;59.44;100551.63;5111521;27;65845;-43
2023/05/11 07:57:59;;;;;;;;;;;;;;;33.55;58.89;100543.47;5120661;27;69252;-42
2023/05/11 08:00:30;;;;;;;;;;;;;;;33.57;59.22;100546.75;5128774;27;66032;-41
2023/05/11 08:03:00;;;;;;;;;;;;;;;33.57;59.05;100536.72;5125340;27;70290;-41
2023/05/11 08:05:36;;;;;;;;;;;;;;;33.59;59.44;100544.63;5128410;27;66885;-41
2023/05/11 08:08:07;;;;;;;;;;;;;;;33.59;59.13;100545.44;5118768;27;70361;-42
2023/05/11 08:10:39;;;;;;;;;;;;;;;33.60;59.01;100549.00;5097154;27;66195;-44
2023/05/11 08:13:11;;;;;;;;;;;;;;;33.59;59.17;100548.16;5121987;27;70285;-42
2023/05/11 08:15:47;;;;;;;;;;;;;;;33.60;59.07;100549.00;5124764;27;65908;-42
2023/05/11 08:18:18;;;;;;;;;;;;;;;33.62;59.03;100552.28;5107228;27;69324;-41
2023/05/11 08:20:48;;;;;;;;;;;;;;;33.61;59.01;100556.09;5127725;27;66904;-41
2023/05/11 08:23:19;;;;;;;;;;;;;;;33.61;59.12;100553.34;5116859;27;70922;-42
2023/05/11 08:25:55;;;;;;;;;;;;;;;33.63;59.11;100553.09;5126708;27;66711;-42
2023/05/11 08:28:25;;;;;;;;;;;;;;;33.63;59.12;100544.94;5122847;27;69652;-42
2023/05/11 08:30:56;;;;;;;;;;;;;;;33.63;59.08;100551.22;5129870;27;66937;-41
2023/05/11 08:33:27;;;;;;;;;;;;;;;33.63;59.11;100551.22;5123962;27;69718;-41
2023/05/11 08:36:02;;;;;;;;;;;;;;;33.62;59.03;100549.56;5123061;27;65902;-41
2023/05/11 08:38:34;;;;;;;;;;;;;;;33.63;58.81;100548.50;5123314;27;69864;-41
2023/05/11 08:41:06;;;;;;;;;;;;;;;33.64;59.10;100550.16;5123144;27;65844;-42
2023/05/11 08:43:38;;;;;;;;;;;;;;;33.64;58.95;100544.72;5102230;27;69552;-42
2023/05/11 08:46:12;;;;;;;;;;;;;;;33.64;59.01;100544.72;5120139;27;66776;-42
2023/05/11 08:48:48;;;;;;;;;;;;;;;33.64;58.91;100541.97;5123690;27;69441;-42
2023/05/11 08:51:18;;;;;;;;;;;;;;;33.64;59.10;100536.53;5120031;27;66195;-43
2023/05/11 08:53:49;;;;;;;;;;;;;;;33.65;59.11;100542.81;5127498;27;69827;-41
2023/05/11 08:56:25;;;;;;;;;;;;;;;33.65;59.24;100543.63;5123277;27;66382;-42
2023/05/11 08:58:59;;;;;;;;;;;;;;;33.65;59.04;100546.34;5122952;27;70404;-42
2023/05/11 09:01:30;;;;;;;;;;;;;;;33.56;59.25;100534.22;5122198;27;66835;-43
2023/05/11 09:04:03;;;;;;;;;;;;;;;33.65;59.16;100538.19;5102306;27;68924;-43
2023/05/11 09:06:37;;;;;;;;;;;;;;;33.66;59.20;100539.03;5120553;27;66065;-42
2023/05/11 09:09:10;;;;;;;;;;;;;;;33.66;59.19;100542.56;5129948;27;70176;-40
2023/05/11 09:11:40;;;;;;;;;;;;;;;33.66;59.30;100544.47;5121874;27;66136;-42
2023/05/11 09:14:14;;;;;;;;;;;;;;;33.67;59.17;100541.50;5124403;27;70158;-43
2023/05/11 09:16:47;;;;;;;;;;;;;;;33.67;60.30;100529.78;5122132;27;65621;-42
2023/05/11 09:19:20;;;;;;;;;;;;;;;33.67;61.14;100519.72;5124035;27;70156;-44
2023/05/11 09:21:52;;;;;;;;;;;;;;;33.63;61.80;100518.59;5125638;27;65472;-42
2023/05/11 09:24:27;;;;;;;;;;;;;;;33.62;61.68;100514.19;5125399;27;69961;-40
2023/05/11 09:27:07;;;;;;;;;;;;;;;33.57;62.31;100514.13;5126990;27;66736;-42
2023/05/11 09:29:38;;;;;;;;;;;;;;;33.61;62.24;100520.72;5121469;27;70482;-42
2023/05/11 09:32:08;;;;;;;;;;;;;;;33.53;62.76;100529.28;5122989;27;66891;-44
2023/05/11 09:34:41;;;;;;;;;;;;;;;33.52;63.26;100538.50;5120388;27;69426;-43
2023/05/11 09:37:18;;;;;;;;;;;;;;;33.51;63.08;100548.53;5121426;27;66028;-43
2023/05/11 09:39:53;;;;;;;;;;;;;;;33.43;64.41;100556.28;5118061;27;69321;-42
2023/05/11 09:42:46;;;;;;;;;;;;;;;33.44;64.40;100544.34;5097744;27;66271;-41
2023/05/11 09:45:54;;;;;;;;;;;;;;;33.43;64.62;100548.13;5120245;27;69037;-45
2023/05/11 09:48:26;;;;;;;;;;;;;;;33.43;64.88;100548.13;5054187;28;66829;-42
2023/05/11 09:51:05;;;;;;;;;;;;;;;33.49;64.52;100549.84;5121190;27;70077;-45
2023/05/11 09:53:44;;;;;;;;;;;;;;;33.53;64.18;100545.59;5130833;27;66700;-44
2023/05/11 09:56:15;;;;;;;;;;;;;;;33.67;63.71;100557.81;5138437;27;70298;-43
2023/05/11 09:58:47;;;;;;;;;;;;;;;33.63;63.87;100551.22;5134629;27;66652;-41
2023/05/11 10:01:31;;;;;;;;;;;;;;;33.57;64.01;100553.03;5136474;27;69925;-43
2023/05/11 10:04:02;;;;;;;;;;;;;;;33.57;63.88;100557.63;5128256;27;66608;-45
2023/05/11 10:06:51;;;;;;;;;;;;;;;33.66;64.52;100566.22;5130302;27;70489;-40
2023/05/11 10:09:24;;;;;;;;;;;;;;;33.64;64.89;100580.06;5125535;27;66570;-44
2023/05/11 10:11:54;;;;;;;;;;;;;;;33.64;65.21;100584.69;5135882;27;70341;-46
2023/05/11 10:14:26;;;;;;;;;;;;;;;33.68;65.16;100586.66;5137585;27;65662;-48
2023/05/11 10:16:57;;;;;;;;;;;;;;;33.62;65.32;100593.06;5090752;27;69290;-45
2023/05/11 10:19:27;;;;;;;;;;;;;;;33.58;65.64;100597.38;5137920;27;66413;-45
2023/05/11 10:21:58;;;;;;;;;;;;;;;33.59;65.61;100609.88;5139296;27;70521;-44
2023/05/11 10:24:30;;;;;;;;;;;;;;;33.56;66.52;100613.91;5102718;27;66558;-44
2023/05/11 10:27:01;;;;;;;;;;;;;;;33.55;66.27;100625.06;5124258;27;70709;-42
2023/05/11 10:29:32;;;;;;;;;;;;;;;33.50;66.32;100627.66;5138954;27;65929;-42
2023/05/11 10:32:21;;;;;;;;;;;;;;;33.47;66.14;100645.28;5126695;27;69266;-43
2023/05/11 10:34:51;;;;;;;;;;;;;;;33.49;65.78;100654.03;5138321;27;65604;-43
2023/05/11 10:37:23;;;;;;;;;;;;;;;33.50;66.03;100665.72;5135488;27;70666;-46
2023/05/11 10:39:54;;;;;;;;;;;;;;;33.52;65.34;100663.59;5132462;27;66450;-44
2023/05/11 10:42:42;;;;;;;;;;;;;;;33.52;65.18;100664.44;5131857;27;70063;-44
2023/05/11 10:45:31;;;;;;;;;;;;;;;33.52;65.20;100674.47;5132349;27;65485;-45
2023/05/11 10:48:19;;;;;;;;;;;;;;;33.54;65.10;100664.19;5121208;27;69751;-44
2023/05/11 10:51:01;;;;;;;;;;;;;;;33.54;65.11;100661.47;5132880;27;66810;-42
2023/05/11 10:53:31;;;;;;;;;;;;;;;33.54;65.27;100656.88;5129206;27;69993;-46
2023/05/11 10:56:09;;;;;;;;;;;;;;;33.55;65.11;100653.06;5107700;27;66616;-44
2023/05/11 10:58:54;;;;;;;;;;;;;;;33.54;65.50;100669.63;5131462;27;70254;-46
2023/05/11 11:01:33;;;;;;;;;;;;;;;33.54;65.59;100685.94;5128861;27;66589;-43
2023/05/11 11:04:05;;;;;;;;;;;;;;;33.54;65.45;100699.53;5129424;27;68952;-43
2023/05/11 11:06:37;;;;;;;;;;;;;;;33.54;65.73;100702.25;5133331;27;66550;-44
2023/05/11 11:09:10;;;;;;;;;;;;;;;33.53;65.85;100711.50;5129290;27;70532;-43
2023/05/11 11:11:44;;;;;;;;;;;;;;;33.52;65.82;100723.41;5124496;27;65746;-43
2023/05/11 11:14:16;;;;;;;;;;;;;;;33.53;65.64;100741.41;5088990;27;69821;-43
2023/05/11 11:17:04;;;;;;;;;;;;;;;33.51;65.95;100740.78;5120137;27;66250;-45
2023/05/11 11:19:35;;;;;;;;;;;;;;;33.05;66.05;100672.72;5120164;27;70517;-46
2023/05/11 11:22:05;;;;;;;;;;;;;;;33.50;66.24;100731.81;5124437;27;65888;-45
2023/05/11 11:24:36;;;;;;;;;;;;;;;33.50;66.18;100741.88;5122833;27;70693;-44
2023/05/11 11:27:07;;;;;;;;;;;;;;;33.49;66.37;100746.47;5100171;27;66974;-44
2023/05/11 11:29:39;;;;;;;;;;;;;;;33.49;66.69;100745.63;5115009;27;69605;-44
2023/05/11 11:32:19;;;;;;;;;;;;;;;33.48;66.75;100760.31;5127469;27;66609;-45
2023/05/11 11:34:50;;;;;;;;;;;;;;;33.47;66.90;100755.94;5120612;27;70024;-46
2023/05/11 11:37:22;;;;;;;;;;;;;;;33.50;67.97;100747.31;5112670;27;66508;-45
2023/05/11 11:39:58;;;;;;;;;;;;;;;33.52;68.68;100750.63;5116752;27;70377;-45
2023/05/11 11:42:43;;;;;;;;;;;;;;;33.49;69.19;100756.50;5112215;27;65941;-43
2023/05/11 11:45:27;;;;;;;;;;;;;;;33.47;69.45;100759.50;5133501;27;70061;-42
2023/05/11 11:48:12;;;;;;;;;;;;;;;33.42;69.83;100761.28;5117610;27;67233;-45
2023/05/11 11:50:43;;;;;;;;;;;;;;;33.40;70.07;100757.97;5119380;27;69496;-45
2023/05/11 11:53:45;;;;;;;;;;;;;;;33.45;69.57;100763.50;5127323;27;66620;-45
2023/05/11 11:56:17;;;;;;;;;;;;;;;33.42;69.68;100761.28;5078552;27;70360;-45
2023/05/11 11:58:48;;;;;;;;;;;;;;;33.41;69.72;100762.34;5130743;27;67031;-44
2023/05/11 12:01:20;;;;;;;;;;;;;;;33.40;70.03;100756.06;5118887;27;69965;-44
2023/05/11 12:04:11;;;;;;;;;;;;;;;33.41;70.28;100765.06;5129498;27;65437;-42
2023/05/11 12:06:43;;;;;;;;;;;;;;;33.38;70.55;100761.75;5110826;27;69783;-42
2023/05/11 12:09:17;;;;;;;;;;;;;;;33.41;70.00;100762.34;5123031;27;66274;-43
2023/05/11 12:11:48;;;;;;;;;;;;;;;33.40;70.07;100768.84;5128990;27;70547;-43
2023/05/11 12:14:21;;;;;;;;;;;;;;;33.39;69.92;100768.03;5118265;27;66681;-41
2023/05/11 12:17:07;;;;;;;;;;;;;;;33.36;70.08;100779.38;5124890;27;70524;-41
2023/05/11 12:19:37;;;;;;;;;;;;;;;33.35;70.41;100794.88;5117082;27;65788;-43
2023/05/11 12:22:09;;;;;;;;;;;;;;;33.36;70.32;100796.50;5124869;27;69402;-42
2023/05/11 12:24:42;;;;;;;;;;;;;;;33.30;70.30;100808.34;5113477;27;65799;-45
2023/05/11 12:27:15;;;;;;;;;;;;;;;33.34;70.66;100811.41;5130834;27;69361;-44
2023/05/11 12:29:49;;;;;;;;;;;;;;;33.19;69.99;100816.53;5120342;27;66564;-44
2023/05/11 12:32:28;;;;;;;;;;;;;;;33.02;67.24;100805.56;5123001;27;69446;-45
2023/05/11 12:35:01;;;;;;;;;;;;;;;32.80;64.17;100803.38;5118778;27;66724;-44
2023/05/11 12:37:32;;;;;;;;;;;;;;;32.63;62.47;100816.00;5117436;27;69661;-43
2023/05/11 12:40:02;;;;;;;;;;;;;;;32.49;59.99;100818.94;5129331;27;66492;-44
2023/05/11 12:42:33;;;;;;;;;;;;;;;32.33;58.92;100835.03;5117652;27;71178;-42
2023/05/11 12:45:07;;;;;;;;;;;;;;;32.24;57.47;100839.94;5123194;27;66724;-44
2023/05/11 12:47:37;;;;;;;;;;;;;;;32.09;56.15;100851.19;5112290;27;69865;-43
2023/05/11 12:50:09;;;;;;;;;;;;;;;31.99;55.05;100857.19;5116215;27;66922;-42
2023/05/11 12:52:40;;;;;;;;;;;;;;;31.91;54.33;100860.22;5115557;27;69737;-42
2023/05/11 12:55:11;;;;;;;;;;;;;;;31.81;55.84;100859.88;5126928;27;67085;-43
2023/05/11 12:57:45;;;;;;;;;;;;;;;31.76;55.50;100857.00;5116448;27;69947;-41
2023/05/11 13:00:17;;;;;;;;;;;;;;;31.69;55.17;100846.25;5108919;27;65648;-44
2023/05/11 13:02:50;;;;;;;;;;;;;;;31.66;54.92;100849.44;5123212;27;69248;-44
2023/05/11 13:05:25;;;;;;;;;;;;;;;31.60;53.85;100848.44;5105960;27;67119;-42